createdAt,value
2019-06-08T00:02:23.605Z,10.30
2019-06-08T00:04:53.645Z,11.90
2019-06-08T00:07:23.446Z,13.22
2019-06-08T00:09:53.288Z,9.85
2019-06-08T00:12:23.347Z,13.10
2019-06-08T00:14:53.024Z,12.68
2019-06-08T00:17:35.832Z,9.90
2019-06-08T00:19:54.296Z,10.25
2019-06-08T00:22:24.043Z,11.35
2019-06-08T00:24:53.838Z,11.85
2019-06-08T00:27:24.598Z,13.90
2019-06-08T00:29:54.508Z,13.18
2019-06-08T00:32:24.592Z,11.93
2019-06-08T00:34:55.651Z,11.35
2019-06-08T00:37:25.286Z,10.55
2019-06-08T00:39:54.969Z,9.78
2019-06-08T00:42:25.517Z,10.28
2019-06-08T00:44:55.603Z,13.13
2019-06-08T00:47:26.786Z,11.75
2019-06-08T00:49:56.779Z,10.23
2019-06-08T00:52:26.599Z,11.78
2019-06-08T00:54:56.921Z,10.43
2019-06-08T00:57:26.822Z,12.35
2019-06-08T00:59:56.531Z,10.50
2019-06-08T01:02:26.775Z,13.03
2019-06-08T01:04:57.824Z,10.38
2019-06-08T01:07:27.691Z,11.18
2019-06-08T01:09:57.404Z,11.45
2019-06-08T01:12:27.193Z,10.78
2019-06-08T01:14:57.001Z,10.95
2019-06-08T01:17:27.450Z,13.45
2019-06-08T01:19:58.561Z,11.22
2019-06-08T01:22:29.543Z,11.33
2019-06-08T01:24:59.475Z,11.53
2019-06-08T01:27:30.154Z,12.65
2019-06-08T01:29:59.943Z,12.30
2019-06-08T01:32:30.607Z,14.28
2019-06-08T01:37:31.219Z,12.15
2019-06-08T01:40:01.276Z,11.50
2019-06-08T01:42:32.057Z,13.73
2019-06-08T01:45:01.737Z,13.98
2019-06-08T01:47:32.407Z,14.78
2019-06-08T01:50:02.518Z,13.83
2019-06-08T01:52:32.972Z,15.18
2019-06-08T01:55:03.017Z,12.75
2019-06-08T01:57:33.841Z,12.85
2019-06-08T02:00:29.457Z,14.93
2019-06-08T02:02:37.756Z,13.18
2019-06-08T02:05:08.244Z,14.28
2019-06-08T02:07:38.200Z,11.65
2019-06-08T02:10:08.915Z,12.73
2019-06-08T02:12:38.808Z,14.70
2019-06-08T02:15:09.239Z,12.95
2019-06-08T02:17:39.126Z,15.75
2019-06-08T02:20:10.012Z,12.13
2019-06-08T02:22:39.929Z,11.57
2019-06-08T02:25:10.303Z,16.12
2019-06-08T02:27:39.911Z,12.40
2019-06-08T02:30:12.636Z,13.70
2019-06-08T02:32:43.558Z,11.70
2019-06-08T02:35:14.036Z,12.50
2019-06-08T02:37:43.888Z,14.23
2019-06-08T02:40:14.313Z,12.35
2019-06-08T02:42:44.088Z,11.38
2019-06-08T02:45:14.227Z,11.68
2019-06-08T02:47:44.130Z,10.95
2019-06-08T02:50:14.285Z,10.78
2019-06-08T02:52:46.389Z,9.48
2019-06-08T02:55:16.590Z,11.10
2019-06-08T02:57:47.570Z,12.10
2019-06-08T03:00:18.599Z,11.83
2019-06-08T03:02:50.225Z,13.00
2019-06-08T03:05:20.124Z,13.90
2019-06-08T03:07:51.788Z,12.73
2019-06-08T03:10:21.661Z,12.68
2019-06-08T03:12:54.165Z,18.02
2019-06-08T03:15:26.880Z,14.47
2019-06-08T03:17:56.663Z,10.93
2019-06-08T03:20:27.647Z,12.30
2019-06-08T03:22:57.422Z,12.68
2019-06-08T03:25:27.389Z,15.58
2019-06-08T03:27:57.233Z,10.93
2019-06-08T03:30:26.890Z,13.45
2019-06-08T03:32:57.254Z,15.38
2019-06-08T03:35:27.224Z,12.25
2019-06-08T03:37:56.788Z,13.03
2019-06-08T03:40:26.609Z,11.75
2019-06-08T03:42:58.005Z,13.00
2019-06-08T03:45:27.785Z,11.50
2019-06-08T03:47:57.617Z,14.20
2019-06-08T03:50:27.500Z,17.07
2019-06-08T03:52:57.290Z,13.72
2019-06-08T03:55:27.046Z,11.53
2019-06-08T03:57:56.878Z,11.10
2019-06-08T04:00:26.892Z,12.43
2019-06-08T04:02:56.809Z,15.35
2019-06-08T04:05:26.632Z,12.58
2019-06-08T04:07:56.644Z,11.95
2019-06-08T04:10:26.541Z,10.85
2019-06-08T04:12:56.410Z,14.15
2019-06-08T04:15:26.275Z,11.63
2019-06-08T04:17:55.976Z,12.58
2019-06-08T04:20:25.812Z,11.60
2019-06-08T04:22:55.625Z,10.90
2019-06-08T04:25:25.746Z,13.72
2019-06-08T04:27:55.589Z,11.70
2019-06-08T04:30:25.512Z,12.00
2019-06-08T04:32:55.389Z,11.68
2019-06-08T04:35:25.134Z,11.20
2019-06-08T04:37:55.238Z,10.80
2019-06-08T04:40:25.143Z,11.60
2019-06-08T04:42:55.050Z,12.37
2019-06-08T04:45:24.985Z,13.50
2019-06-08T04:47:54.798Z,12.65
2019-06-08T04:50:24.631Z,10.72
2019-06-08T04:52:54.444Z,11.18
2019-06-08T04:55:24.744Z,10.60
2019-06-08T04:57:54.690Z,12.43
2019-06-08T05:00:24.575Z,11.05
2019-06-08T05:02:55.116Z,12.50
2019-06-08T05:05:24.850Z,12.75
2019-06-08T05:07:54.463Z,10.05
2019-06-08T05:10:24.348Z,16.50
2019-06-08T05:12:54.092Z,10.95
2019-06-08T05:15:24.012Z,11.30
2019-06-08T05:17:53.913Z,9.58
2019-06-08T05:20:37.788Z,12.47
2019-06-08T05:22:55.297Z,10.68
2019-06-08T05:25:25.179Z,10.55
2019-06-08T05:27:54.990Z,11.28
2019-06-08T05:30:28.016Z,11.93
2019-06-08T05:32:57.308Z,10.98
2019-06-08T05:35:27.218Z,11.43
2019-06-08T05:37:57.059Z,11.10
2019-06-08T05:40:26.968Z,11.35
2019-06-08T05:42:56.853Z,9.70
2019-06-08T05:45:26.793Z,8.95
2019-06-08T05:47:57.753Z,12.77
2019-06-08T05:50:27.499Z,12.45
2019-06-08T05:52:57.356Z,9.08
2019-06-08T05:55:27.216Z,9.40
2019-06-08T05:57:57.101Z,11.63
2019-06-08T06:00:27.009Z,12.50
2019-06-08T06:02:56.820Z,10.18
2019-06-08T06:05:26.672Z,8.38
2019-06-08T06:07:56.530Z,9.18
2019-06-08T06:10:26.430Z,7.85
2019-06-08T06:12:57.512Z,15.80
2019-06-08T06:15:27.157Z,8.73
2019-06-08T06:17:56.996Z,8.95
2019-06-08T06:20:26.843Z,8.68
2019-06-08T06:22:58.631Z,8.90
2019-06-08T06:25:28.033Z,8.68
2019-06-08T06:27:57.795Z,6.80
2019-06-08T06:30:27.441Z,7.05
2019-06-08T06:32:57.351Z,12.23
2019-06-08T06:35:27.215Z,7.00
2019-06-08T06:37:57.164Z,8.88
2019-06-08T06:40:26.964Z,6.90
2019-06-08T06:42:56.568Z,7.25
2019-06-08T06:45:26.476Z,10.70
2019-06-08T06:47:56.360Z,7.40
2019-06-08T06:50:26.319Z,12.05
2019-06-08T06:52:56.142Z,8.03
2019-06-08T06:55:26.259Z,8.28
2019-06-08T06:57:56.072Z,8.55
2019-06-08T07:00:28.791Z,8.43
2019-06-08T07:02:59.566Z,9.20
2019-06-08T07:05:29.495Z,6.67
2019-06-08T07:08:00.021Z,7.97
2019-06-08T07:10:30.125Z,7.53
2019-06-08T07:13:00.205Z,7.37
2019-06-08T07:15:30.230Z,7.53
2019-06-08T07:18:00.074Z,8.35
2019-06-08T07:20:30.048Z,6.17
2019-06-08T07:23:00.755Z,7.00
2019-06-08T07:25:30.527Z,8.65
2019-06-08T07:28:00.441Z,12.18
2019-06-08T07:30:30.348Z,9.20
2019-06-08T07:33:00.160Z,7.30
2019-06-08T07:35:30.102Z,6.62
2019-06-08T07:38:00.533Z,5.78
2019-06-08T07:40:30.449Z,7.47
2019-06-08T07:43:00.453Z,7.10
2019-06-08T07:45:30.371Z,12.30
2019-06-08T07:48:00.624Z,5.05
2019-06-08T07:50:30.643Z,4.90
2019-06-08T07:53:00.472Z,5.83
2019-06-08T07:55:30.243Z,5.42
2019-06-08T07:58:01.184Z,5.50
2019-06-08T08:00:31.358Z,5.28
2019-06-08T08:03:01.204Z,6.67
2019-06-08T08:05:32.051Z,9.23
2019-06-08T08:08:01.872Z,7.75
2019-06-08T08:10:32.900Z,8.40
2019-06-08T08:13:02.467Z,5.70
2019-06-08T08:15:32.658Z,8.28
2019-06-08T08:18:02.543Z,9.53
2019-06-08T08:20:32.482Z,7.03
2019-06-08T08:23:06.000Z,5.53
2019-06-08T08:25:33.849Z,7.50
2019-06-08T08:28:03.761Z,6.92
2019-06-08T08:30:33.667Z,7.00
2019-06-08T08:33:03.656Z,6.97
2019-06-08T08:35:33.519Z,4.78
2019-06-08T08:38:04.673Z,6.35
2019-06-08T08:40:34.600Z,8.18
2019-06-08T08:43:04.507Z,7.85
2019-06-08T08:45:34.455Z,7.75
2019-06-08T08:48:20.296Z,6.90
2019-06-08T08:50:38.173Z,6.15
2019-06-08T08:55:38.016Z,8.20
2019-06-08T08:58:08.470Z,8.13
2019-06-08T09:00:41.292Z,11.28
2019-06-08T09:03:25.237Z,6.97
2019-06-08T09:08:10.417Z,9.78
2019-06-08T09:10:40.317Z,7.22
2019-06-08T09:13:12.086Z,9.13
2019-06-08T09:15:41.772Z,8.28
2019-06-08T09:18:11.581Z,7.15
2019-06-08T09:20:41.401Z,5.70
2019-06-08T09:23:16.193Z,6.03
2019-06-08T09:28:11.706Z,7.53
2019-06-08T09:30:41.554Z,9.25
2019-06-08T09:33:11.413Z,14.78
2019-06-08T09:35:41.282Z,7.90
2019-06-08T09:38:11.160Z,7.12
2019-06-08T09:40:40.817Z,7.95
2019-06-08T09:43:13.231Z,5.30
2019-06-08T09:48:11.186Z,13.18
2019-06-08T09:50:41.002Z,6.53
2019-06-08T09:53:23.913Z,8.25
2019-06-08T09:58:11.951Z,8.73
2019-06-08T10:00:41.892Z,7.30
2019-06-08T10:03:11.949Z,7.87
2019-06-08T10:05:41.747Z,7.15
2019-06-08T10:08:11.628Z,8.23
2019-06-08T10:10:41.491Z,7.50
2019-06-08T10:13:11.308Z,7.55
2019-06-08T10:15:41.252Z,8.43
2019-06-08T10:18:11.077Z,5.37
2019-06-08T10:20:40.993Z,6.80
2019-06-08T10:23:27.207Z,5.50
2019-06-08T10:25:42.387Z,8.55
2019-06-08T10:28:15.912Z,10.05
2019-06-08T10:30:44.799Z,7.60
2019-06-08T10:33:14.672Z,6.28
2019-06-08T10:35:44.496Z,11.35
2019-06-08T10:38:14.411Z,10.80
2019-06-08T10:40:48.205Z,5.80
2019-06-08T10:43:20.008Z,6.65
2019-06-08T10:48:20.178Z,9.25
2019-06-08T10:50:50.090Z,8.43
2019-06-08T10:53:19.974Z,10.80
2019-06-08T10:55:49.861Z,5.90
2019-06-08T10:58:20.603Z,6.25
2019-06-08T11:00:50.467Z,10.50
2019-06-08T11:03:20.328Z,7.53
2019-06-08T11:05:51.352Z,7.65
2019-06-08T11:08:21.278Z,7.10
2019-06-08T11:10:51.152Z,8.50
2019-06-08T11:13:22.102Z,7.95
2019-06-08T11:15:52.885Z,22.70
2019-06-08T11:18:22.835Z,9.68
2019-06-08T11:20:52.605Z,8.28
2019-06-08T11:23:22.380Z,7.37
2019-06-08T11:25:52.224Z,10.32
2019-06-08T11:28:22.073Z,11.83
2019-06-08T11:30:51.974Z,7.90
2019-06-08T11:33:21.757Z,7.95
2019-06-08T11:35:51.674Z,9.63
2019-06-08T11:38:21.482Z,9.23
2019-06-08T11:40:51.219Z,7.65
2019-06-08T11:43:21.025Z,8.05
2019-06-08T11:45:50.738Z,7.10
2019-06-08T11:48:20.671Z,7.42
2019-06-08T11:50:50.576Z,6.40
2019-06-08T11:53:20.459Z,7.17
2019-06-08T11:55:51.212Z,7.28
2019-06-08T11:58:23.324Z,8.98
2019-06-08T12:01:00.751Z,10.75
2019-06-08T12:03:30.541Z,8.30
2019-06-08T12:06:02.035Z,9.95
2019-06-08T12:08:32.072Z,7.05
2019-06-08T12:11:03.762Z,7.35
2019-06-08T12:13:33.368Z,8.33
2019-06-08T12:16:03.227Z,7.95
2019-06-08T12:18:33.013Z,7.10
2019-06-08T12:21:03.785Z,8.23
2019-06-08T12:23:33.635Z,9.30
2019-06-08T12:26:04.068Z,10.55
2019-06-08T12:28:34.004Z,8.55
2019-06-08T12:31:04.751Z,7.42
2019-06-08T12:33:34.845Z,9.43
2019-06-08T12:36:06.076Z,8.28
2019-06-08T12:38:38.054Z,9.88
2019-06-08T12:41:09.644Z,8.33
2019-06-08T12:43:39.487Z,7.65
2019-06-08T12:46:11.181Z,7.92
2019-06-08T12:51:11.655Z,8.98
2019-06-08T12:53:41.290Z,9.10
2019-06-08T12:56:12.089Z,8.55
2019-06-08T12:58:42.706Z,12.20
2019-06-08T13:01:12.915Z,7.83
2019-06-08T13:03:42.805Z,10.03
2019-06-08T13:06:13.945Z,7.10
2019-06-08T13:08:43.944Z,15.30
2019-06-08T13:11:13.979Z,10.48
2019-06-08T13:13:43.967Z,10.25
2019-06-08T13:16:14.589Z,9.63
2019-06-08T13:18:44.641Z,7.17
2019-06-08T13:21:25.450Z,9.60
2019-06-08T13:23:47.970Z,7.30
2019-06-08T13:26:21.547Z,7.10
2019-06-08T13:28:48.714Z,7.37
2019-06-08T13:31:22.114Z,9.83
2019-06-08T13:33:50.142Z,8.43
2019-06-08T13:36:26.083Z,7.70
2019-06-08T13:38:51.431Z,6.87
2019-06-08T13:41:25.950Z,6.92
2019-06-08T13:43:52.727Z,11.22
2019-06-08T13:46:23.705Z,8.23
2019-06-08T13:48:53.300Z,7.33
2019-06-08T13:51:24.183Z,7.78
2019-06-08T13:53:54.123Z,10.00
2019-06-08T13:56:24.128Z,6.50
2019-06-08T13:58:53.841Z,9.50
2019-06-08T14:01:23.914Z,6.60
2019-06-08T14:03:54.803Z,6.40
2019-06-08T14:06:24.998Z,9.80
2019-06-08T14:08:54.781Z,9.00
2019-06-08T14:11:25.294Z,13.32
2019-06-08T14:14:00.784Z,9.55
2019-06-08T14:16:29.730Z,6.15
2019-06-08T14:18:58.973Z,7.90
2019-06-08T14:21:37.842Z,7.42
2019-06-08T14:24:00.231Z,8.83
2019-06-08T14:26:30.154Z,10.98
2019-06-08T14:29:01.489Z,6.33
2019-06-08T14:31:32.079Z,6.83
2019-06-08T14:34:01.927Z,9.38
2019-06-08T14:36:31.738Z,10.32
2019-06-08T14:39:02.571Z,11.20
2019-06-08T14:41:34.349Z,10.00
2019-06-08T14:44:04.436Z,6.60
2019-06-08T14:46:34.106Z,9.70
2019-06-08T14:49:03.945Z,8.10
2019-06-08T14:51:35.472Z,8.13
2019-06-08T14:54:07.606Z,9.50
2019-06-08T14:56:37.555Z,6.25
2019-06-08T14:59:08.192Z,8.90
2019-06-08T15:01:38.242Z,11.25
2019-06-08T15:04:08.930Z,11.30
2019-06-08T15:06:39.091Z,6.73
2019-06-08T15:09:08.962Z,7.60
2019-06-08T15:11:38.889Z,8.10
2019-06-08T15:14:08.751Z,8.43
2019-06-08T15:16:41.765Z,5.67
2019-06-08T15:19:11.023Z,8.10
2019-06-08T15:21:40.839Z,8.35
2019-06-08T15:24:10.756Z,9.80
2019-06-08T15:26:45.051Z,8.18
2019-06-08T15:29:12.037Z,7.80
2019-06-08T15:31:41.635Z,6.72
2019-06-08T15:34:11.216Z,7.87
2019-06-08T15:36:40.916Z,6.05
2019-06-08T15:39:10.737Z,7.75
2019-06-08T15:41:40.558Z,9.03
2019-06-08T15:44:10.532Z,5.83
2019-06-08T15:46:41.106Z,7.17
2019-06-08T15:49:11.230Z,6.97
2019-06-08T15:51:40.975Z,7.08
2019-06-08T15:54:10.848Z,7.55
2019-06-08T15:56:48.563Z,6.97
2019-06-08T15:59:12.120Z,6.35
2019-06-08T16:01:41.868Z,8.33
2019-06-08T16:04:12.758Z,6.20
2019-06-08T16:06:42.674Z,5.67
2019-06-08T16:09:12.236Z,6.28
2019-06-08T16:11:42.104Z,7.83
2019-06-08T16:14:11.942Z,7.60
2019-06-08T16:16:41.706Z,6.72
2019-06-08T16:19:11.271Z,6.85
2019-06-08T16:21:41.191Z,6.28
2019-06-08T16:24:11.088Z,6.62
2019-06-08T16:26:52.823Z,7.80
2019-06-08T16:29:12.343Z,9.53
2019-06-08T16:31:42.236Z,11.33
2019-06-08T16:34:12.055Z,9.25
2019-06-08T16:36:41.820Z,7.95
2019-06-08T16:39:11.799Z,9.98
2019-06-08T16:41:41.551Z,9.33
2019-06-08T16:44:11.347Z,7.12
2019-06-08T16:46:41.212Z,9.58
2019-06-08T16:49:11.071Z,8.45
2019-06-08T16:51:41.959Z,7.87
2019-06-08T16:54:11.819Z,9.85
2019-06-08T16:56:41.674Z,6.87
2019-06-08T16:59:11.577Z,7.80
2019-06-08T17:01:42.505Z,10.80
2019-06-08T17:04:12.279Z,10.43
2019-06-08T17:06:42.131Z,8.78
2019-06-08T17:09:11.941Z,9.80
2019-06-08T17:11:41.859Z,9.88
2019-06-08T17:14:11.579Z,7.62
2019-06-08T17:16:41.519Z,10.13
2019-06-08T17:19:11.323Z,8.95
2019-06-08T17:21:41.143Z,7.87
2019-06-08T17:24:10.982Z,8.18
2019-06-08T17:26:40.910Z,7.70
2019-06-08T17:29:10.704Z,7.70
2019-06-08T17:31:41.395Z,7.62
2019-06-08T17:34:11.364Z,7.58
2019-06-08T17:36:41.196Z,8.28
2019-06-08T17:39:11.080Z,9.05
2019-06-08T17:41:42.087Z,11.78
2019-06-08T17:44:12.384Z,10.43
2019-06-08T17:46:43.127Z,10.00
2019-06-08T17:49:13.044Z,10.25
2019-06-08T17:51:44.400Z,9.53
2019-06-08T17:54:14.433Z,9.15
2019-06-08T17:56:44.299Z,8.70
2019-06-08T17:59:14.178Z,9.23
2019-06-08T18:01:44.033Z,13.93
2019-06-08T18:04:13.827Z,12.23
2019-06-08T18:06:44.609Z,16.30
2019-06-08T18:09:14.602Z,11.33
2019-06-08T18:11:45.213Z,10.63
2019-06-08T18:14:18.052Z,10.50
2019-06-08T18:16:48.441Z,11.60
2019-06-08T18:19:21.244Z,10.50
2019-06-08T18:21:51.050Z,10.20
2019-06-08T18:24:20.989Z,11.90
2019-06-08T18:26:51.410Z,10.85
2019-06-08T18:29:21.275Z,11.83
2019-06-08T18:31:51.032Z,11.83
2019-06-08T18:34:20.883Z,12.20
2019-06-08T18:36:50.782Z,10.95
2019-06-08T18:39:20.685Z,12.63
2019-06-08T18:41:50.605Z,9.58
2019-06-08T18:44:20.535Z,12.85
2019-06-08T18:46:50.337Z,12.63
2019-06-08T18:49:20.824Z,12.50
2019-06-08T18:51:52.908Z,10.75
2019-06-08T18:54:23.795Z,13.83
2019-06-08T18:56:53.755Z,19.57
2019-06-08T18:59:23.546Z,19.65
2019-06-08T19:01:53.392Z,18.67
2019-06-08T19:04:23.254Z,21.23
2019-06-08T19:06:53.999Z,15.98
2019-06-08T19:09:24.086Z,11.43
2019-06-08T19:11:53.952Z,15.70
2019-06-08T19:14:23.840Z,13.08
2019-06-08T19:16:54.791Z,13.40
2019-06-08T19:19:24.724Z,15.18
2019-06-08T19:21:57.884Z,10.98
2019-06-08T19:24:28.053Z,17.07
2019-06-08T19:26:59.372Z,12.85
2019-06-08T19:29:29.257Z,13.85
2019-06-08T19:32:00.546Z,13.65
2019-06-08T19:34:33.146Z,13.08
2019-06-08T19:37:02.034Z,17.60
2019-06-08T19:39:31.838Z,12.88
2019-06-08T19:42:01.608Z,11.85
2019-06-08T19:44:31.399Z,13.45
2019-06-08T19:47:01.242Z,11.55
2019-06-08T19:49:31.064Z,11.63
2019-06-08T19:52:00.833Z,14.60
2019-06-08T19:54:30.616Z,15.03
2019-06-08T19:57:00.471Z,12.28
2019-06-08T19:59:30.257Z,11.90
2019-06-08T20:02:00.114Z,14.60
2019-06-08T20:04:29.887Z,15.50
2019-06-08T20:07:00.638Z,15.40
2019-06-08T20:09:30.565Z,14.43
2019-06-08T20:12:00.416Z,18.95
2019-06-08T20:14:30.228Z,14.70
2019-06-08T20:16:59.995Z,14.98
2019-06-08T20:19:29.581Z,12.53
2019-06-08T20:21:59.372Z,12.63
2019-06-08T20:24:29.262Z,14.75
2019-06-08T20:26:59.248Z,17.23
2019-06-08T20:29:29.125Z,13.88
2019-06-08T20:31:58.890Z,13.08
2019-06-08T20:34:28.627Z,12.43
2019-06-08T20:37:01.435Z,14.47
2019-06-08T20:39:29.947Z,13.98
2019-06-08T20:41:59.804Z,16.30
2019-06-08T20:44:30.305Z,14.50
2019-06-08T20:47:00.091Z,12.47
2019-06-08T20:49:30.949Z,12.68
2019-06-08T20:52:00.683Z,16.07
2019-06-08T20:54:30.442Z,13.62
2019-06-08T20:57:00.388Z,12.35
2019-06-08T20:59:34.015Z,13.98
2019-06-08T21:02:01.697Z,15.70
2019-06-08T21:04:31.441Z,12.93
2019-06-08T21:07:01.231Z,13.28
2019-06-08T21:09:31.005Z,12.93
2019-06-08T21:12:00.641Z,13.32
2019-06-08T21:14:30.419Z,13.45
2019-06-08T21:17:00.308Z,13.10
2019-06-08T21:19:30.184Z,13.08
2019-06-08T21:22:00.002Z,13.40
2019-06-08T21:24:29.776Z,15.80
2019-06-08T21:27:00.943Z,15.60
2019-06-08T21:29:46.939Z,14.50
2019-06-08T21:32:02.940Z,16.82
2019-06-08T21:34:32.753Z,13.90
2019-06-08T21:37:02.563Z,15.55
2019-06-08T21:39:32.316Z,14.18
2019-06-08T21:42:03.366Z,13.95
2019-06-08T21:44:33.288Z,14.28
2019-06-08T21:47:03.175Z,12.93
2019-06-08T21:49:32.948Z,11.95
2019-06-08T21:52:02.832Z,12.50
2019-06-08T21:54:32.647Z,14.53
2019-06-08T21:57:02.507Z,16.75
2019-06-08T21:59:32.448Z,13.72
2019-06-08T22:02:04.038Z,14.75
2019-06-08T22:04:37.092Z,13.15
2019-06-08T22:07:07.098Z,12.55
2019-06-08T22:09:37.396Z,12.35
2019-06-08T22:12:07.351Z,14.30
2019-06-08T22:14:37.899Z,12.28
2019-06-08T22:17:08.114Z,12.13
2019-06-08T22:19:39.010Z,12.23
2019-06-08T22:22:08.864Z,12.13
2019-06-08T22:24:38.601Z,13.50
2019-06-08T22:27:08.336Z,12.03
2019-06-08T22:29:38.380Z,12.20
2019-06-08T22:32:08.246Z,11.83
2019-06-08T22:34:37.979Z,13.25
2019-06-08T22:37:08.605Z,11.40
2019-06-08T22:39:38.719Z,12.00
2019-06-08T22:42:08.576Z,12.50
2019-06-08T22:44:38.382Z,13.28
2019-06-08T22:47:08.322Z,13.40
2019-06-08T22:49:38.519Z,13.08
2019-06-08T22:52:08.475Z,14.65
2019-06-08T22:54:38.496Z,13.60
2019-06-08T22:57:08.296Z,13.50
2019-06-08T22:59:38.100Z,13.78
2019-06-08T23:02:09.132Z,14.85
2019-06-08T23:04:39.103Z,13.05
2019-06-08T23:07:13.608Z,13.68
2019-06-08T23:09:40.462Z,14.05
2019-06-08T23:12:10.342Z,14.45
2019-06-08T23:14:40.189Z,15.05
2019-06-08T23:17:10.002Z,14.35
2019-06-08T23:19:39.851Z,15.58
2019-06-08T23:22:09.670Z,16.05
2019-06-08T23:24:39.295Z,16.23
2019-06-08T23:27:09.081Z,16.15
2019-06-08T23:29:39.009Z,15.32
2019-06-08T23:32:11.701Z,14.40
2019-06-08T23:34:41.694Z,17.62
2019-06-08T23:37:12.798Z,14.87
2019-06-08T23:39:42.857Z,14.75
2019-06-08T23:42:12.856Z,14.63
2019-06-08T23:44:42.618Z,14.47
2019-06-08T23:47:12.452Z,14.05
2019-06-08T23:49:42.259Z,14.53
2019-06-08T23:52:13.108Z,14.30
2019-06-08T23:54:42.923Z,14.50
2019-06-08T23:57:12.704Z,15.65
2019-06-08T23:59:42.545Z,14.20
